Bajada del Agrio, Argentina
Current Conditions -  °F | °C
As of 4:00 AM on Sunday 26 Oct 2014 (Local Time) from SAZN Reporting Station
Clear Clear  
Wind Chill: 54°   Ceiling: Unl
Heat Index: 54°   Visibility: 6mi
Dew Point: 50°   Wind: 2mph
Humidity: 88%   Direction: 290°WNW
Pressure: 29.8"   Gusts: NA
Location:  38.56°S, 70.02°W
Report Text: SAZN 260700Z 29002KT CAVOK 12/10 Q1009
Loading
Personal Weather Stations






























Interactive Weather Map
Tropical Storm Tracking
New forecast layout! Learn more

10-Day Weather Forecast

Advertisements
Track Severe Weather on mobile